createdAt,value
2022-08-19T00:00:10.311Z,15.52
2022-08-19T00:02:37.799Z,15.55
2022-08-19T00:05:17.376Z,15.82
2022-08-19T00:07:45.000Z,16.13
2022-08-19T00:10:14.278Z,17.33
2022-08-19T00:12:43.942Z,15.27
2022-08-19T00:15:15.994Z,15.68
2022-08-19T00:17:44.632Z,14.48
2022-08-19T00:20:13.147Z,15.43
2022-08-19T00:22:42.123Z,15.43
2022-08-19T00:25:09.452Z,15.75
2022-08-19T00:27:36.972Z,15.57
2022-08-19T00:30:05.286Z,15.85
2022-08-19T00:32:32.374Z,15.45
2022-08-19T00:35:01.547Z,15.60
2022-08-19T00:37:29.331Z,15.73
2022-08-19T00:39:56.886Z,16.25
2022-08-19T00:42:24.226Z,15.25
2022-08-19T00:44:51.716Z,16.33
2022-08-19T00:47:18.878Z,16.75
2022-08-19T00:49:52.073Z,15.57
2022-08-19T00:52:22.997Z,16.27
2022-08-19T00:54:52.673Z,15.82
2022-08-19T00:57:25.091Z,17.00
2022-08-19T01:00:01.448Z,16.27
2022-08-19T01:02:31.200Z,15.77
2022-08-19T01:04:58.631Z,15.65
2022-08-19T01:07:25.851Z,16.30
2022-08-19T01:09:53.023Z,15.98
2022-08-19T01:12:20.295Z,16.58
2022-08-19T01:14:47.530Z,16.02
2022-08-19T01:17:14.878Z,15.48
2022-08-19T01:19:43.549Z,16.73
2022-08-19T01:22:16.668Z,15.68
2022-08-19T01:24:49.825Z,15.82
2022-08-19T01:27:17.779Z,16.65
2022-08-19T01:29:45.834Z,16.55
2022-08-19T01:32:32.360Z,16.60
2022-08-19T01:35:03.011Z,17.38
2022-08-19T01:37:31.590Z,16.90
2022-08-19T01:39:58.775Z,17.02
2022-08-19T01:42:30.330Z,18.35
2022-08-19T01:44:57.986Z,18.23
2022-08-19T01:47:25.255Z,18.60
2022-08-19T01:49:52.384Z,19.40
2022-08-19T01:52:19.566Z,18.83
2022-08-19T01:54:46.702Z,19.40
2022-08-19T01:57:14.466Z,19.50
2022-08-19T01:59:42.765Z,19.85
2022-08-19T02:02:09.880Z,19.00
2022-08-19T02:04:38.908Z,20.00
2022-08-19T02:07:06.171Z,19.50
2022-08-19T02:09:33.821Z,19.98
2022-08-19T02:12:00.664Z,20.10
2022-08-19T02:14:27.957Z,19.83
2022-08-19T02:16:55.025Z,20.27
2022-08-19T02:19:22.177Z,20.40
2022-08-19T02:21:49.288Z,19.77
2022-08-19T02:24:16.337Z,19.30
2022-08-19T02:26:43.453Z,18.67
2022-08-19T02:29:10.577Z,19.48
2022-08-19T02:31:37.837Z,17.77
2022-08-19T02:34:05.096Z,18.92
2022-08-19T02:36:32.316Z,16.98
2022-08-19T02:39:00.498Z,18.50
2022-08-19T02:41:29.252Z,19.15
2022-08-19T02:44:20.417Z,18.38
2022-08-19T02:46:46.972Z,17.90
2022-08-19T02:49:17.224Z,17.80
2022-08-19T02:51:45.097Z,17.20
2022-08-19T02:54:13.482Z,18.70
2022-08-19T02:56:41.556Z,17.83
2022-08-19T02:59:11.377Z,17.63
2022-08-19T03:01:40.111Z,17.80
2022-08-19T03:04:09.982Z,17.85
2022-08-19T03:06:38.432Z,17.08
2022-08-19T03:09:05.678Z,19.33
2022-08-19T03:11:33.366Z,18.95
2022-08-19T03:14:01.110Z,18.88
2022-08-19T03:16:29.179Z,18.27
2022-08-19T03:19:01.560Z,19.30
2022-08-19T03:21:29.886Z,19.38
2022-08-19T03:23:58.138Z,18.98
2022-08-19T03:26:25.519Z,19.27
2022-08-19T03:28:58.739Z,18.85
2022-08-19T03:31:45.710Z,19.17
2022-08-19T03:34:16.242Z,19.33
2022-08-19T03:36:42.983Z,19.08
2022-08-19T03:39:11.167Z,20.48
2022-08-19T03:41:45.116Z,19.83
2022-08-19T03:44:17.794Z,19.15
2022-08-19T03:46:46.337Z,19.50
2022-08-19T03:49:14.223Z,19.80
2022-08-19T03:51:42.573Z,19.50
2022-08-19T03:54:10.569Z,20.17
2022-08-19T03:56:38.721Z,19.40
2022-08-19T03:59:07.098Z,19.45
2022-08-19T04:01:35.481Z,20.67
2022-08-19T04:04:03.454Z,18.55
2022-08-19T04:06:33.553Z,20.45
2022-08-19T04:09:02.133Z,19.58
2022-08-19T04:11:42.626Z,19.83
2022-08-19T04:14:12.367Z,20.38
2022-08-19T04:16:39.606Z,20.80
2022-08-19T04:19:07.461Z,20.17
2022-08-19T04:21:35.158Z,19.65
2022-08-19T04:24:03.810Z,20.77
2022-08-19T04:26:33.137Z,19.30
2022-08-19T04:29:01.099Z,19.60
2022-08-19T04:31:29.830Z,20.58
2022-08-19T04:33:59.034Z,21.45
2022-08-19T04:36:27.857Z,19.88
2022-08-19T04:38:57.291Z,19.65
2022-08-19T04:41:44.804Z,19.00
2022-08-19T04:44:12.809Z,19.67
2022-08-19T04:46:51.387Z,20.73
2022-08-19T04:49:19.988Z,19.95
2022-08-19T04:51:48.703Z,20.50
2022-08-19T04:54:16.045Z,19.15
2022-08-19T04:57:00.865Z,19.35
2022-08-19T04:59:28.001Z,19.02
2022-08-19T05:01:55.152Z,20.48
2022-08-19T05:04:22.311Z,18.88
2022-08-19T05:06:50.415Z,19.67
2022-08-19T05:09:18.000Z,20.23
2022-08-19T05:11:45.720Z,21.67
2022-08-19T05:14:13.857Z,20.05
2022-08-19T05:16:41.189Z,18.90
2022-08-19T05:19:28.464Z,20.50
2022-08-19T05:22:15.633Z,19.60
2022-08-19T05:25:02.467Z,18.52
2022-08-19T05:27:29.924Z,19.83
2022-08-19T05:29:57.000Z,20.30
2022-08-19T05:32:24.357Z,19.48
2022-08-19T05:34:51.605Z,19.48
2022-08-19T05:37:18.692Z,19.88
2022-08-19T05:39:50.938Z,19.98
2022-08-19T05:42:21.014Z,20.20
2022-08-19T05:44:49.998Z,19.67
2022-08-19T05:47:17.250Z,19.35
2022-08-19T05:49:44.634Z,19.55
2022-08-19T05:52:13.514Z,19.20
2022-08-19T05:54:42.498Z,18.10
2022-08-19T05:57:10.558Z,18.25
2022-08-19T05:59:40.546Z,19.25
2022-08-19T06:02:08.049Z,18.20
2022-08-19T06:04:35.518Z,19.27
2022-08-19T06:07:12.695Z,18.75
2022-08-19T06:09:40.345Z,19.60
2022-08-19T06:12:07.726Z,18.23
2022-08-19T06:14:40.279Z,18.40
2022-08-19T06:17:09.364Z,17.42
2022-08-19T06:19:40.791Z,17.85
2022-08-19T06:22:08.446Z,17.23
2022-08-19T06:24:36.305Z,17.98
2022-08-19T06:27:03.558Z,17.08
2022-08-19T06:29:31.115Z,16.35
2022-08-19T06:32:00.239Z,16.88
2022-08-19T06:34:29.032Z,15.73
2022-08-19T06:36:56.929Z,15.88
2022-08-19T06:39:25.451Z,15.48
2022-08-19T06:41:58.181Z,15.40
2022-08-19T06:44:27.351Z,14.18
2022-08-19T06:46:55.404Z,14.13
2022-08-19T06:49:23.676Z,13.73
2022-08-19T06:51:51.725Z,11.80
2022-08-19T06:54:20.082Z,12.40
2022-08-19T06:56:48.173Z,12.93
2022-08-19T06:59:17.445Z,13.20
2022-08-19T07:01:47.824Z,13.98
2022-08-19T07:04:16.627Z,12.93
2022-08-19T07:06:44.827Z,13.48
2022-08-19T07:09:13.736Z,12.85
2022-08-19T07:11:40.927Z,14.25
2022-08-19T07:14:19.041Z,13.73
2022-08-19T07:16:47.810Z,13.77
2022-08-19T07:19:16.175Z,13.40
2022-08-19T07:21:46.723Z,13.02
2022-08-19T07:24:13.842Z,14.10
2022-08-19T07:26:43.747Z,13.80
2022-08-19T07:29:11.907Z,13.02
2022-08-19T07:31:41.140Z,13.23
2022-08-19T07:34:12.476Z,12.75
2022-08-19T07:36:41.463Z,13.30
2022-08-19T07:39:10.898Z,13.00
2022-08-19T07:41:38.784Z,12.80
2022-08-19T07:44:08.368Z,11.95
2022-08-19T07:46:38.370Z,13.15
2022-08-19T07:49:07.547Z,13.75
2022-08-19T07:51:36.915Z,14.60
2022-08-19T07:54:04.348Z,15.15
2022-08-19T07:56:31.516Z,14.07
2022-08-19T07:58:58.772Z,15.48
2022-08-19T08:01:27.254Z,16.23
2022-08-19T08:04:14.671Z,16.58
2022-08-19T08:07:01.724Z,16.75
2022-08-19T08:09:31.484Z,15.88
2022-08-19T08:12:17.967Z,16.10
2022-08-19T08:14:51.419Z,17.77
2022-08-19T08:17:30.888Z,15.75
2022-08-19T08:20:11.987Z,17.13
2022-08-19T08:23:01.739Z,17.15
2022-08-19T08:25:29.003Z,16.30
2022-08-19T08:28:01.102Z,16.15
2022-08-19T08:30:31.172Z,16.15
2022-08-19T08:33:00.255Z,15.02
2022-08-19T08:35:29.580Z,15.45
2022-08-19T08:37:57.627Z,15.63
2022-08-19T08:40:24.780Z,14.70
2022-08-19T08:45:42.422Z,14.48
2022-08-19T08:48:21.944Z,14.57
2022-08-19T08:50:53.530Z,14.38
2022-08-19T08:53:29.178Z,13.27
2022-08-19T08:55:57.514Z,12.65
2022-08-19T08:58:31.611Z,13.73
2022-08-19T09:00:58.695Z,13.90
2022-08-19T09:03:31.390Z,12.90
2022-08-19T09:05:58.882Z,13.32
2022-08-19T09:08:45.870Z,13.32
2022-08-19T09:11:42.807Z,13.18
2022-08-19T09:14:35.060Z,11.82
2022-08-19T09:17:01.573Z,11.82
2022-08-19T09:19:29.414Z,13.82
2022-08-19T09:21:56.647Z,14.07
2022-08-19T09:24:24.072Z,15.25
2022-08-19T09:26:58.447Z,13.23
2022-08-19T09:29:25.539Z,14.00
2022-08-19T09:31:53.351Z,13.85
2022-08-19T09:34:22.126Z,14.30
2022-08-19T09:36:50.399Z,15.18
2022-08-19T09:39:18.472Z,14.32
2022-08-19T09:41:47.687Z,14.55
2022-08-19T09:44:16.899Z,15.27
2022-08-19T09:46:47.879Z,14.82
2022-08-19T09:49:15.396Z,14.60
2022-08-19T09:51:42.584Z,14.43
2022-08-19T09:54:11.191Z,14.95
2022-08-19T09:56:38.650Z,15.02
2022-08-19T09:59:10.344Z,15.30
2022-08-19T10:01:37.506Z,14.23
2022-08-19T10:04:19.814Z,14.35
2022-08-19T10:06:48.499Z,15.18
2022-08-19T10:09:33.549Z,14.75
2022-08-19T10:12:02.644Z,14.27
2022-08-19T10:14:29.962Z,14.20
2022-08-19T10:16:57.531Z,15.45
2022-08-19T10:19:26.613Z,14.10
2022-08-19T10:21:55.641Z,13.43
2022-08-19T10:24:28.747Z,13.55
2022-08-19T10:26:58.893Z,14.80
2022-08-19T10:29:32.907Z,13.50
2022-08-19T10:32:02.875Z,12.65
2022-08-19T10:34:31.074Z,45.35
2022-08-19T10:37:00.975Z,64.05
2022-08-19T10:39:30.639Z,31.00
2022-08-19T10:41:58.182Z,15.10
2022-08-19T10:44:27.376Z,25.65
2022-08-19T10:47:00.263Z,15.93
2022-08-19T10:49:28.201Z,15.00
2022-08-19T10:52:18.652Z,13.75
2022-08-19T10:55:08.830Z,13.40
2022-08-19T10:58:03.249Z,13.77
2022-08-19T11:00:24.035Z,12.85
2022-08-19T11:02:51.259Z,12.93
2022-08-19T11:05:18.665Z,12.38
2022-08-19T11:07:46.161Z,13.57
2022-08-19T11:10:18.307Z,12.90
2022-08-19T11:12:49.049Z,12.60
2022-08-19T11:15:16.229Z,15.25
2022-08-19T11:17:44.514Z,14.20
2022-08-19T11:20:13.271Z,12.18
2022-08-19T11:22:41.778Z,13.68
2022-08-19T11:25:10.653Z,14.10
2022-08-19T11:27:43.384Z,12.35
2022-08-19T11:30:13.208Z,12.43
2022-08-19T11:32:43.549Z,12.98
2022-08-19T11:35:13.050Z,13.70
2022-08-19T11:37:40.457Z,13.38
2022-08-19T11:40:08.480Z,13.02
2022-08-19T11:42:55.504Z,12.90
2022-08-19T11:45:23.005Z,13.38
2022-08-19T11:47:50.303Z,13.45
2022-08-19T11:50:18.224Z,12.68
2022-08-19T11:52:46.080Z,13.18
2022-08-19T11:55:14.140Z,12.70
2022-08-19T11:57:42.133Z,13.07
2022-08-19T12:00:10.006Z,12.10
2022-08-19T12:02:37.193Z,12.95
2022-08-19T12:05:06.928Z,12.05
2022-08-19T12:07:36.277Z,12.35
2022-08-19T12:10:03.730Z,11.63
2022-08-19T12:12:30.940Z,11.15
2022-08-19T12:14:59.383Z,11.25
2022-08-19T12:17:28.670Z,10.80
2022-08-19T12:19:56.151Z,11.13
2022-08-19T12:22:23.311Z,10.18
2022-08-19T12:24:51.820Z,11.13
2022-08-19T12:27:32.046Z,11.13
2022-08-19T12:30:07.545Z,11.30
2022-08-19T12:32:34.736Z,11.02
2022-08-19T12:35:02.193Z,13.07
2022-08-19T12:37:29.334Z,13.13
2022-08-19T12:39:56.437Z,14.25
2022-08-19T12:42:23.615Z,15.38
2022-08-19T12:44:52.323Z,15.05
2022-08-19T12:47:19.676Z,17.10
2022-08-19T12:49:54.950Z,16.85
2022-08-19T12:52:23.965Z,18.15
2022-08-19T12:54:54.423Z,18.73
2022-08-19T12:57:22.316Z,19.80
2022-08-19T12:59:55.087Z,20.02
2022-08-19T13:02:23.316Z,20.88
2022-08-19T13:04:50.453Z,22.00
2022-08-19T13:07:17.527Z,23.17
2022-08-19T13:09:45.571Z,21.88
2022-08-19T13:12:14.325Z,22.63
2022-08-19T13:14:42.073Z,22.50
2022-08-19T13:17:09.611Z,23.45
2022-08-19T13:19:38.178Z,21.90
2022-08-19T13:22:10.337Z,24.67
2022-08-19T13:24:46.912Z,24.00
2022-08-19T13:27:14.478Z,22.02
2022-08-19T13:30:08.750Z,23.33
2022-08-19T13:32:55.735Z,23.48
2022-08-19T13:35:22.775Z,24.50
2022-08-19T13:37:49.874Z,23.90
2022-08-19T13:40:19.509Z,25.35
2022-08-19T13:42:48.478Z,25.33
2022-08-19T13:45:17.453Z,24.48
2022-08-19T13:47:46.747Z,27.05
2022-08-19T13:50:15.102Z,27.45
2022-08-19T13:52:42.503Z,26.08
2022-08-19T13:55:10.594Z,25.42
2022-08-19T13:57:41.230Z,23.02
2022-08-19T14:00:11.400Z,21.42
2022-08-19T14:02:40.051Z,22.35
2022-08-19T14:05:08.039Z,17.30
2022-08-19T14:07:35.179Z,20.02
2022-08-19T14:10:02.306Z,18.25
2022-08-19T14:12:29.544Z,17.83
2022-08-19T14:14:56.296Z,14.43
2022-08-19T14:17:23.486Z,13.35
2022-08-19T14:19:50.599Z,13.63
2022-08-19T14:22:22.294Z,13.55
2022-08-19T14:24:51.071Z,13.20
2022-08-19T14:27:18.166Z,13.27
2022-08-19T14:29:45.814Z,12.82
2022-08-19T14:32:16.772Z,11.18
2022-08-19T14:34:46.665Z,11.27
2022-08-19T14:37:15.374Z,11.35
2022-08-19T14:39:43.033Z,10.43
2022-08-19T14:42:11.469Z,10.73
2022-08-19T14:44:39.042Z,10.20
2022-08-19T14:47:07.866Z,9.98
2022-08-19T14:49:43.830Z,9.68
2022-08-19T14:52:13.345Z,9.60
2022-08-19T14:54:40.437Z,10.02
2022-08-19T14:57:07.669Z,8.45
2022-08-19T14:59:35.947Z,8.63
2022-08-19T15:02:33.641Z,9.10
2022-08-19T15:04:58.363Z,9.02
2022-08-19T15:07:28.868Z,7.78
2022-08-19T15:09:56.713Z,7.60
2022-08-19T15:12:24.097Z,7.63
2022-08-19T15:14:55.124Z,8.07
2022-08-19T15:17:32.435Z,8.27
2022-08-19T15:20:12.346Z,7.80
2022-08-19T15:22:39.794Z,7.95
2022-08-19T15:25:08.014Z,7.43
2022-08-19T15:27:36.643Z,7.68
2022-08-19T15:30:03.912Z,7.68
2022-08-19T15:32:31.102Z,6.95
2022-08-19T15:34:58.556Z,7.63
2022-08-19T15:37:27.250Z,6.18
2022-08-19T15:39:54.401Z,5.97
2022-08-19T15:42:29.379Z,6.50
2022-08-19T15:45:00.726Z,6.57
2022-08-19T15:47:34.704Z,5.28
2022-08-19T15:50:10.662Z,6.63
2022-08-19T15:52:39.597Z,5.95
2022-08-19T15:55:32.871Z,5.38
2022-08-19T15:58:28.003Z,5.40
2022-08-19T16:01:16.319Z,5.10
2022-08-19T16:04:04.895Z,4.53
2022-08-19T16:06:39.118Z,5.20
2022-08-19T16:09:06.268Z,4.88
2022-08-19T16:11:39.439Z,5.10
2022-08-19T16:14:09.268Z,4.63
2022-08-19T16:16:37.269Z,5.00
2022-08-19T16:19:10.643Z,5.13
2022-08-19T16:21:41.817Z,5.50
2022-08-19T16:24:11.926Z,5.70
2022-08-19T16:26:39.277Z,5.30
2022-08-19T16:29:08.938Z,4.55
2022-08-19T16:31:39.848Z,5.43
2022-08-19T16:34:07.024Z,5.55
2022-08-19T16:36:34.469Z,5.10
2022-08-19T16:39:01.898Z,4.38
2022-08-19T16:41:29.373Z,4.32
2022-08-19T16:43:56.708Z,4.88
2022-08-19T16:46:24.644Z,4.53
2022-08-19T16:48:54.465Z,5.38
2022-08-19T16:51:22.803Z,5.05
2022-08-19T16:53:52.399Z,5.10
2022-08-19T16:56:20.081Z,4.30
2022-08-19T16:58:47.693Z,4.93
2022-08-19T17:01:15.122Z,5.20
2022-08-19T17:03:42.741Z,5.60
2022-08-19T17:06:18.428Z,5.28
2022-08-19T17:08:48.991Z,5.50
2022-08-19T17:11:18.589Z,5.07
2022-08-19T17:13:47.858Z,4.75
2022-08-19T17:16:15.933Z,4.55
2022-08-19T17:18:43.052Z,4.80
2022-08-19T17:21:10.317Z,4.85
2022-08-19T17:23:42.789Z,4.85
2022-08-19T17:26:15.884Z,8.20
2022-08-19T17:28:47.986Z,6.95
2022-08-19T17:31:15.269Z,5.18
2022-08-19T17:33:42.362Z,4.82
2022-08-19T17:36:10.951Z,4.13
2022-08-19T17:38:39.114Z,4.65
2022-08-19T17:41:06.826Z,5.07
2022-08-19T17:43:40.057Z,5.40
2022-08-19T17:46:13.039Z,5.13
2022-08-19T17:48:49.598Z,4.03
2022-08-19T17:51:22.386Z,0.00
2022-08-19T17:53:50.744Z,0.10
2022-08-19T17:56:18.027Z,0.10
2022-08-19T17:58:59.938Z,0.17
2022-08-19T18:01:32.051Z,0.30
2022-08-19T18:04:14.983Z,0.10
2022-08-19T18:06:50.286Z,0.22
2022-08-19T18:09:20.632Z,0.20
2022-08-19T18:11:52.708Z,0.20
2022-08-19T18:14:20.370Z,0.10
2022-08-19T18:16:47.437Z,0.10
2022-08-19T18:19:14.503Z,0.10
2022-08-19T18:21:41.645Z,0.20
2022-08-19T18:24:08.670Z,0.10
2022-08-19T18:26:35.727Z,0.47
2022-08-19T18:29:02.882Z,0.10
2022-08-19T18:31:30.043Z,0.10
2022-08-19T18:33:57.311Z,0.22
2022-08-19T18:36:51.985Z,0.40
2022-08-19T18:39:31.450Z,0.10
2022-08-19T18:42:18.466Z,0.25
2022-08-19T18:45:05.514Z,0.05
2022-08-19T18:47:52.550Z,0.20
2022-08-19T18:50:19.658Z,0.10
2022-08-19T18:52:47.474Z,0.32
2022-08-19T18:55:15.744Z,0.17
2022-08-19T18:57:42.827Z,0.30
2022-08-19T19:00:10.425Z,0.15
2022-08-19T19:02:38.958Z,0.17
2022-08-19T19:05:07.682Z,0.80
2022-08-19T19:07:35.193Z,0.20
2022-08-19T19:10:02.550Z,0.10
2022-08-19T19:12:29.837Z,0.20
2022-08-19T19:14:58.630Z,0.20
2022-08-19T19:17:28.414Z,0.43
2022-08-19T19:19:55.637Z,0.15
2022-08-19T19:22:23.071Z,0.60
2022-08-19T19:24:50.907Z,0.98
2022-08-19T19:27:20.405Z,0.28
2022-08-19T19:29:51.949Z,0.25
2022-08-19T19:32:22.341Z,0.40
2022-08-19T19:34:49.716Z,0.40
2022-08-19T19:37:17.311Z,0.20
2022-08-19T19:39:46.738Z,0.30
2022-08-19T19:42:19.923Z,0.28
2022-08-19T19:44:50.084Z,0.20
2022-08-19T19:47:18.825Z,0.52
2022-08-19T19:50:10.642Z,0.20
2022-08-19T19:52:33.837Z,0.17
2022-08-19T19:55:01.452Z,2.25
2022-08-19T19:57:30.275Z,0.40
2022-08-19T19:59:58.172Z,0.85
2022-08-19T20:02:25.392Z,0.30
2022-08-19T20:04:52.900Z,0.25
2022-08-19T20:07:39.946Z,0.43
2022-08-19T20:10:07.206Z,0.43
2022-08-19T20:12:35.045Z,0.45
2022-08-19T20:15:03.245Z,0.70
2022-08-19T20:17:30.332Z,1.10
2022-08-19T20:19:57.981Z,0.47
2022-08-19T20:22:25.837Z,0.20
2022-08-19T20:24:54.833Z,0.10
2022-08-19T20:27:25.728Z,0.88
2022-08-19T20:29:53.219Z,0.22
2022-08-19T20:32:20.332Z,0.20
2022-08-19T20:34:49.101Z,0.10
2022-08-19T20:37:16.275Z,0.93
2022-08-19T20:39:43.428Z,0.20
2022-08-19T20:42:10.640Z,0.30
2022-08-19T20:44:38.038Z,0.20
2022-08-19T20:47:05.331Z,0.73
2022-08-19T20:49:32.808Z,0.10
2022-08-19T20:52:00.233Z,0.20
2022-08-19T20:54:27.465Z,0.10
2022-08-19T20:56:54.945Z,0.15
2022-08-19T20:59:22.890Z,0.35
2022-08-19T21:01:51.853Z,0.32
2022-08-19T21:04:19.793Z,0.63
2022-08-19T21:06:46.900Z,0.28
2022-08-19T21:09:14.718Z,0.38
2022-08-19T21:11:42.064Z,0.25
2022-08-19T21:14:09.164Z,0.57
2022-08-19T21:16:36.379Z,0.43
2022-08-19T21:19:04.475Z,1.00
2022-08-19T21:21:31.468Z,0.90
2022-08-19T21:23:58.542Z,0.75
2022-08-19T21:26:25.599Z,1.10
2022-08-19T21:28:52.734Z,0.32
2022-08-19T21:31:20.819Z,0.75
2022-08-19T21:33:47.958Z,0.60
2022-08-19T21:36:15.102Z,0.13
2022-08-19T21:38:42.203Z,0.25
2022-08-19T21:41:09.040Z,0.28
2022-08-19T21:43:36.651Z,0.30
2022-08-19T21:46:04.329Z,0.32
2022-08-19T21:48:31.456Z,0.95
2022-08-19T21:50:58.654Z,1.40
2022-08-19T21:53:31.476Z,0.85
2022-08-19T21:56:01.642Z,0.10
2022-08-19T21:58:30.207Z,0.75
2022-08-19T22:00:58.496Z,0.20
2022-08-19T22:03:25.864Z,0.30
2022-08-19T22:05:53.100Z,0.10
2022-08-19T22:08:20.292Z,0.55
2022-08-19T22:10:49.016Z,0.15
2022-08-19T22:13:18.069Z,0.10
2022-08-19T22:15:46.002Z,0.20
2022-08-19T22:18:13.695Z,0.10
2022-08-19T22:20:40.847Z,0.20
2022-08-19T22:23:08.419Z,0.20
2022-08-19T22:25:37.263Z,0.10
2022-08-19T22:28:05.850Z,0.20
2022-08-19T22:30:34.176Z,0.55
2022-08-19T22:33:02.679Z,0.20
2022-08-19T22:35:32.139Z,0.30
2022-08-19T22:37:59.757Z,0.13
2022-08-19T22:40:28.762Z,0.20
2022-08-19T22:43:00.232Z,0.60
2022-08-19T22:45:27.803Z,0.10
2022-08-19T22:47:55.242Z,0.10
2022-08-19T22:50:22.479Z,0.20
2022-08-19T22:52:51.812Z,0.10
2022-08-19T22:55:19.400Z,0.30
2022-08-19T22:57:46.502Z,0.40
2022-08-19T23:00:14.695Z,0.20
2022-08-19T23:02:51.643Z,0.20
2022-08-19T23:05:21.790Z,0.40
2022-08-19T23:07:52.695Z,0.55
2022-08-19T23:10:26.695Z,0.10
2022-08-19T23:12:55.194Z,0.25
2022-08-19T23:15:25.487Z,0.40
2022-08-19T23:17:53.266Z,0.15
2022-08-19T23:20:20.842Z,0.10
2022-08-19T23:22:49.646Z,0.10
2022-08-19T23:25:18.551Z,0.10
2022-08-19T23:28:05.596Z,0.40
2022-08-19T23:30:34.293Z,0.45
2022-08-19T23:33:09.661Z,0.25
2022-08-19T23:35:41.028Z,0.17
2022-08-19T23:38:08.783Z,0.10
2022-08-19T23:40:36.854Z,0.20
2022-08-19T23:43:08.002Z,0.20
2022-08-19T23:45:38.200Z,0.73
2022-08-19T23:48:06.320Z,0.73
2022-08-19T23:50:33.817Z,0.75
2022-08-19T23:53:01.639Z,0.20
2022-08-19T23:55:30.236Z,0.20
2022-08-19T23:57:57.956Z,0.20
